Cement Creek, Colorado
Current Conditions -  °F | °C
As of 11:53 AM on Thursday 23 Oct 2014 (Local Time) from KASE Reporting Station
Clear Clear  
Wind Chill: 57°   Ceiling: Unl
Heat Index: 57°   Visibility: 10mi
Dew Point: 33°   Wind: 6mph
Humidity: 40%   Direction: 330°NNW
Pressure: 30.34"   Gusts: NA
Location:  38.8937°N, 106.919°W
Report Text: KASE 231753Z 33005KT 10SM CLR 14/01 A3034 RMK AO2 SLP202 T01390006 10139 21006 58007
Loading
Personal Weather Stations






























Interactive Weather Map
Tropical Storm Tracking
New forecast layout! Learn more

10-Day Weather Forecast

Advertisements
Track Severe Weather on mobile